sensor_id;sensor_type;location;lat;lon;timestamp;temperature;humidity
10980;DHT22;5543;51.734;8.744;2023-04-15T00:00:13;5.60;99.90
10980;DHT22;5543;51.734;8.744;2023-04-15T00:02:41;5.60;99.90
10980;DHT22;5543;51.734;8.744;2023-04-15T00:05:10;5.70;99.90
10980;DHT22;5543;51.734;8.744;2023-04-15T00:07:38;5.60;99.90
10980;DHT22;5543;51.734;8.744;2023-04-15T00:10:07;5.60;99.90
10980;DHT22;5543;51.734;8.744;2023-04-15T00:12:37;5.60;99.90
10980;DHT22;5543;51.734;8.744;2023-04-15T00:15:06;5.70;99.90
10980;DHT22;5543;51.734;8.744;2023-04-15T00:17:34;5.70;99.90
10980;DHT22;5543;51.734;8.744;2023-04-15T00:20:05;5.70;99.90
10980;DHT22;5543;51.734;8.744;2023-04-15T00:22:33;5.80;99.90
10980;DHT22;5543;51.734;8.744;2023-04-15T00:25:02;5.80;99.90
10980;DHT22;5543;51.734;8.744;2023-04-15T00:27:30;5.80;99.90
10980;DHT22;5543;51.734;8.744;2023-04-15T00:30:00;5.80;99.90
10980;DHT22;5543;51.734;8.744;2023-04-15T00:32:29;5.90;99.90
10980;DHT22;5543;51.734;8.744;2023-04-15T00:34:57;5.70;99.90
10980;DHT22;5543;51.734;8.744;2023-04-15T00:37:25;5.90;99.90
10980;DHT22;5543;51.734;8.744;2023-04-15T00:39:54;5.70;99.90
10980;DHT22;5543;51.734;8.744;2023-04-15T00:42:22;5.70;99.90
10980;DHT22;5543;51.734;8.744;2023-04-15T00:44:51;5.60;99.90
10980;DHT22;5543;51.734;8.744;2023-04-15T00:47:21;5.90;99.90
10980;DHT22;5543;51.734;8.744;2023-04-15T00:49:49;5.60;99.90
10980;DHT22;5543;51.734;8.744;2023-04-15T00:52:17;5.60;99.90
10980;DHT22;5543;51.734;8.744;2023-04-15T00:54:46;5.70;99.90
10980;DHT22;5543;51.734;8.744;2023-04-15T00:57:14;5.50;99.90
10980;DHT22;5543;51.734;8.744;2023-04-15T00:59:42;5.80;99.90
10980;DHT22;5543;51.734;8.744;2023-04-15T01:02:10;5.60;99.90
10980;DHT22;5543;51.734;8.744;2023-04-15T01:04:40;5.90;99.90
10980;DHT22;5543;51.734;8.744;2023-04-15T01:07:09;5.60;99.90
10980;DHT22;5543;51.734;8.744;2023-04-15T01:09:37;5.60;99.90
10980;DHT22;5543;51.734;8.744;2023-04-15T01:12:06;5.60;99.90
10980;DHT22;5543;51.734;8.744;2023-04-15T01:14:37;5.60;99.90
10980;DHT22;5543;51.734;8.744;2023-04-15T01:17:05;5.50;99.90
10980;DHT22;5543;51.734;8.744;2023-04-15T01:19:33;5.50;99.90
10980;DHT22;5543;51.734;8.744;2023-04-15T01:22:04;5.40;99.90
10980;DHT22;5543;51.734;8.744;2023-04-15T01:24:32;5.40;99.90
10980;DHT22;5543;51.734;8.744;2023-04-15T01:27:03;5.40;99.90
10980;DHT22;5543;51.734;8.744;2023-04-15T01:29:34;5.30;99.90
10980;DHT22;5543;51.734;8.744;2023-04-15T01:32:03;5.30;99.90
10980;DHT22;5543;51.734;8.744;2023-04-15T01:34:31;5.30;99.90
10980;DHT22;5543;51.734;8.744;2023-04-15T01:37:01;5.30;99.90
10980;DHT22;5543;51.734;8.744;2023-04-15T01:39:29;5.20;99.90
10980;DHT22;5543;51.734;8.744;2023-04-15T01:41:57;5.20;99.90
10980;DHT22;5543;51.734;8.744;2023-04-15T01:44:27;5.10;99.90
10980;DHT22;5543;51.734;8.744;2023-04-15T01:46:55;5.10;99.90
10980;DHT22;5543;51.734;8.744;2023-04-15T01:49:23;5.00;99.90
10980;DHT22;5543;51.734;8.744;2023-04-15T01:51:51;5.00;99.90
10980;DHT22;5543;51.734;8.744;2023-04-15T01:54:19;5.00;99.90
10980;DHT22;5543;51.734;8.744;2023-04-15T01:56:48;4.90;99.90
10980;DHT22;5543;51.734;8.744;2023-04-15T01:59:16;5.00;99.90
10980;DHT22;5543;51.734;8.744;2023-04-15T02:01:45;5.00;99.90
10980;DHT22;5543;51.734;8.744;2023-04-15T02:04:13;5.00;99.90
10980;DHT22;5543;51.734;8.744;2023-04-15T02:06:43;4.90;99.90
10980;DHT22;5543;51.734;8.744;2023-04-15T02:09:12;4.90;99.90
10980;DHT22;5543;51.734;8.744;2023-04-15T02:11:40;4.90;99.90
10980;DHT22;5543;51.734;8.744;2023-04-15T02:14:08;4.90;99.90
10980;DHT22;5543;51.734;8.744;2023-04-15T02:16:36;4.90;99.90
10980;DHT22;5543;51.734;8.744;2023-04-15T02:19:05;4.80;99.90
10980;DHT22;5543;51.734;8.744;2023-04-15T02:21:33;4.80;99.90
10980;DHT22;5543;51.734;8.744;2023-04-15T02:24:02;4.80;99.90
10980;DHT22;5543;51.734;8.744;2023-04-15T02:26:30;4.80;99.90
10980;DHT22;5543;51.734;8.744;2023-04-15T02:28:59;4.80;99.90
10980;DHT22;5543;51.734;8.744;2023-04-15T02:31:27;4.80;99.90
10980;DHT22;5543;51.734;8.744;2023-04-15T02:33:55;4.80;99.90
10980;DHT22;5543;51.734;8.744;2023-04-15T02:36:24;4.70;99.90
10980;DHT22;5543;51.734;8.744;2023-04-15T02:38:53;4.90;99.90
10980;DHT22;5543;51.734;8.744;2023-04-15T02:41:21;5.00;99.90
10980;DHT22;5543;51.734;8.744;2023-04-15T02:43:52;4.80;99.90
10980;DHT22;5543;51.734;8.744;2023-04-15T02:46:20;4.80;99.90
10980;DHT22;5543;51.734;8.744;2023-04-15T02:48:49;4.80;99.90
10980;DHT22;5543;51.734;8.744;2023-04-15T02:51:18;4.80;99.90
10980;DHT22;5543;51.734;8.744;2023-04-15T02:53:48;4.80;99.90
10980;DHT22;5543;51.734;8.744;2023-04-15T02:56:17;4.80;99.90
10980;DHT22;5543;51.734;8.744;2023-04-15T02:58:45;4.80;99.90
10980;DHT22;5543;51.734;8.744;2023-04-15T03:01:16;4.70;99.90
10980;DHT22;5543;51.734;8.744;2023-04-15T03:03:44;4.80;99.90
10980;DHT22;5543;51.734;8.744;2023-04-15T03:06:12;4.80;99.90
10980;DHT22;5543;51.734;8.744;2023-04-15T03:08:40;4.80;99.90
10980;DHT22;5543;51.734;8.744;2023-04-15T03:11:10;4.80;99.90
10980;DHT22;5543;51.734;8.744;2023-04-15T03:13:38;4.80;99.90
10980;DHT22;5543;51.734;8.744;2023-04-15T03:16:07;4.80;99.90
10980;DHT22;5543;51.734;8.744;2023-04-15T03:18:35;4.90;99.90
10980;DHT22;5543;51.734;8.744;2023-04-15T03:21:04;4.80;99.90
10980;DHT22;5543;51.734;8.744;2023-04-15T03:23:32;4.90;99.90
10980;DHT22;5543;51.734;8.744;2023-04-15T03:26:01;4.90;99.90
10980;DHT22;5543;51.734;8.744;2023-04-15T03:28:30;4.90;99.90
10980;DHT22;5543;51.734;8.744;2023-04-15T03:30:59;4.90;99.90
10980;DHT22;5543;51.734;8.744;2023-04-15T03:33:27;4.90;99.90
10980;DHT22;5543;51.734;8.744;2023-04-15T03:35:55;4.90;99.90
10980;DHT22;5543;51.734;8.744;2023-04-15T03:38:23;4.90;99.90
10980;DHT22;5543;51.734;8.744;2023-04-15T03:40:51;4.90;99.90
10980;DHT22;5543;51.734;8.744;2023-04-15T03:43:19;4.90;99.90
10980;DHT22;5543;51.734;8.744;2023-04-15T03:45:49;4.90;99.90
10980;DHT22;5543;51.734;8.744;2023-04-15T03:48:23;5.10;99.90
10980;DHT22;5543;51.734;8.744;2023-04-15T03:51:03;4.60;99.90
10980;DHT22;5543;51.734;8.744;2023-04-15T03:53:31;4.80;99.90
10980;DHT22;5543;51.734;8.744;2023-04-15T03:55:59;4.80;99.90
10980;DHT22;5543;51.734;8.744;2023-04-15T03:58:27;4.70;99.90
10980;DHT22;5543;51.734;8.744;2023-04-15T04:00:56;4.70;99.90
10980;DHT22;5543;51.734;8.744;2023-04-15T04:03:24;4.70;99.90
10980;DHT22;5543;51.734;8.744;2023-04-15T04:05:53;4.70;99.90
10980;DHT22;5543;51.734;8.744;2023-04-15T04:08:21;4.70;99.90
10980;DHT22;5543;51.734;8.744;2023-04-15T04:10:49;4.70;99.90
10980;DHT22;5543;51.734;8.744;2023-04-15T04:13:17;4.70;99.90
10980;DHT22;5543;51.734;8.744;2023-04-15T04:15:45;4.70;99.90
10980;DHT22;5543;51.734;8.744;2023-04-15T04:18:15;4.70;99.90
10980;DHT22;5543;51.734;8.744;2023-04-15T04:20:43;4.90;99.90
10980;DHT22;5543;51.734;8.744;2023-04-15T04:23:11;4.70;99.90
10980;DHT22;5543;51.734;8.744;2023-04-15T04:25:39;4.70;99.90
10980;DHT22;5543;51.734;8.744;2023-04-15T04:28:07;4.70;99.90
10980;DHT22;5543;51.734;8.744;2023-04-15T04:30:35;4.70;99.90
10980;DHT22;5543;51.734;8.744;2023-04-15T04:33:03;4.70;99.90
10980;DHT22;5543;51.734;8.744;2023-04-15T04:35:33;4.80;99.90
10980;DHT22;5543;51.734;8.744;2023-04-15T04:38:03;4.80;99.90
10980;DHT22;5543;51.734;8.744;2023-04-15T04:40:31;5.10;99.90
10980;DHT22;5543;51.734;8.744;2023-04-15T04:42:59;4.80;99.90
10980;DHT22;5543;51.734;8.744;2023-04-15T04:45:27;4.80;99.90
10980;DHT22;5543;51.734;8.744;2023-04-15T04:47:55;4.90;99.90
10980;DHT22;5543;51.734;8.744;2023-04-15T04:50:24;4.90;99.90
10980;DHT22;5543;51.734;8.744;2023-04-15T04:52:53;4.90;99.90
10980;DHT22;5543;51.734;8.744;2023-04-15T04:55:21;4.90;99.90
10980;DHT22;5543;51.734;8.744;2023-04-15T04:57:49;5.00;99.90
10980;DHT22;5543;51.734;8.744;2023-04-15T05:00:17;5.00;99.90
10980;DHT22;5543;51.734;8.744;2023-04-15T05:02:46;5.00;99.90
10980;DHT22;5543;51.734;8.744;2023-04-15T05:05:14;5.10;99.90
10980;DHT22;5543;51.734;8.744;2023-04-15T05:07:42;5.10;99.90
10980;DHT22;5543;51.734;8.744;2023-04-15T05:10:12;5.20;99.90
10980;DHT22;5543;51.734;8.744;2023-04-15T05:12:41;5.30;99.90
10980;DHT22;5543;51.734;8.744;2023-04-15T05:15:09;5.20;99.90
10980;DHT22;5543;51.734;8.744;2023-04-15T05:17:37;5.30;99.90
10980;DHT22;5543;51.734;8.744;2023-04-15T05:20:07;5.50;99.90
10980;DHT22;5543;51.734;8.744;2023-04-15T05:22:36;5.40;99.90
10980;DHT22;5543;51.734;8.744;2023-04-15T05:25:04;5.50;99.90
10980;DHT22;5543;51.734;8.744;2023-04-15T05:27:34;5.60;99.90
10980;DHT22;5543;51.734;8.744;2023-04-15T05:30:02;5.80;99.90
10980;DHT22;5543;51.734;8.744;2023-04-15T05:32:31;5.70;99.90
10980;DHT22;5543;51.734;8.744;2023-04-15T05:34:59;5.80;99.90
10980;DHT22;5543;51.734;8.744;2023-04-15T05:37:27;5.80;99.90
10980;DHT22;5543;51.734;8.744;2023-04-15T05:39:56;5.90;99.90
10980;DHT22;5543;51.734;8.744;2023-04-15T05:42:24;6.00;99.90
10980;DHT22;5543;51.734;8.744;2023-04-15T05:44:53;6.00;99.90
10980;DHT22;5543;51.734;8.744;2023-04-15T05:47:21;6.10;99.90
10980;DHT22;5543;51.734;8.744;2023-04-15T05:49:49;6.20;99.90
10980;DHT22;5543;51.734;8.744;2023-04-15T05:52:17;6.30;99.90
10980;DHT22;5543;51.734;8.744;2023-04-15T05:54:45;6.40;99.90
10980;DHT22;5543;51.734;8.744;2023-04-15T05:57:13;6.50;99.90
10980;DHT22;5543;51.734;8.744;2023-04-15T05:59:41;6.60;99.90
10980;DHT22;5543;51.734;8.744;2023-04-15T06:02:11;6.70;99.90
10980;DHT22;5543;51.734;8.744;2023-04-15T06:04:40;6.80;99.90
10980;DHT22;5543;51.734;8.744;2023-04-15T06:07:08;6.80;99.90
10980;DHT22;5543;51.734;8.744;2023-04-15T06:09:36;7.00;99.90
10980;DHT22;5543;51.734;8.744;2023-04-15T06:12:05;7.20;99.90
10980;DHT22;5543;51.734;8.744;2023-04-15T06:14:37;7.60;99.90
10980;DHT22;5543;51.734;8.744;2023-04-15T06:17:06;7.40;99.90
10980;DHT22;5543;51.734;8.744;2023-04-15T06:19:36;7.40;99.90
10980;DHT22;5543;51.734;8.744;2023-04-15T06:22:04;7.50;99.90
10980;DHT22;5543;51.734;8.744;2023-04-15T06:24:34;7.80;99.90
10980;DHT22;5543;51.734;8.744;2023-04-15T06:27:03;7.60;99.90
10980;DHT22;5543;51.734;8.744;2023-04-15T06:29:31;7.50;99.90
10980;DHT22;5543;51.734;8.744;2023-04-15T06:31:59;7.80;99.90
10980;DHT22;5543;51.734;8.744;2023-04-15T06:34:27;7.50;99.90
10980;DHT22;5543;51.734;8.744;2023-04-15T06:36:56;7.50;99.90
10980;DHT22;5543;51.734;8.744;2023-04-15T06:39:24;7.60;99.90
10980;DHT22;5543;51.734;8.744;2023-04-15T06:41:53;7.60;99.90
10980;DHT22;5543;51.734;8.744;2023-04-15T06:44:22;7.50;99.90
10980;DHT22;5543;51.734;8.744;2023-04-15T06:46:50;7.70;99.90
10980;DHT22;5543;51.734;8.744;2023-04-15T06:49:18;7.70;99.90
10980;DHT22;5543;51.734;8.744;2023-04-15T06:51:46;7.70;99.90
10980;DHT22;5543;51.734;8.744;2023-04-15T06:54:15;7.70;99.90
10980;DHT22;5543;51.734;8.744;2023-04-15T06:56:44;7.70;99.90
10980;DHT22;5543;51.734;8.744;2023-04-15T06:59:12;7.80;99.90
10980;DHT22;5543;51.734;8.744;2023-04-15T07:01:40;7.80;99.90
10980;DHT22;5543;51.734;8.744;2023-04-15T07:04:08;7.90;99.90
10980;DHT22;5543;51.734;8.744;2023-04-15T07:06:36;8.00;99.90
10980;DHT22;5543;51.734;8.744;2023-04-15T07:09:05;8.10;99.90
10980;DHT22;5543;51.734;8.744;2023-04-15T07:11:35;8.20;99.90
10980;DHT22;5543;51.734;8.744;2023-04-15T07:14:03;8.20;99.90
10980;DHT22;5543;51.734;8.744;2023-04-15T07:16:32;8.20;99.90
10980;DHT22;5543;51.734;8.744;2023-04-15T07:19:00;8.20;99.90
10980;DHT22;5543;51.734;8.744;2023-04-15T07:21:29;8.30;99.90
10980;DHT22;5543;51.734;8.744;2023-04-15T07:23:58;8.20;99.90
10980;DHT22;5543;51.734;8.744;2023-04-15T07:26:26;8.30;99.90
10980;DHT22;5543;51.734;8.744;2023-04-15T07:28:55;8.40;99.90
10980;DHT22;5543;51.734;8.744;2023-04-15T07:31:23;8.20;99.90
10980;DHT22;5543;51.734;8.744;2023-04-15T07:33:51;8.20;99.90
10980;DHT22;5543;51.734;8.744;2023-04-15T07:36:19;8.20;99.90
10980;DHT22;5543;51.734;8.744;2023-04-15T07:38:47;8.10;99.90
10980;DHT22;5543;51.734;8.744;2023-04-15T07:41:15;8.10;99.90
10980;DHT22;5543;51.734;8.744;2023-04-15T07:43:43;8.10;99.90
10980;DHT22;5543;51.734;8.744;2023-04-15T07:46:13;8.10;99.90
10980;DHT22;5543;51.734;8.744;2023-04-15T07:48:41;8.10;99.90
10980;DHT22;5543;51.734;8.744;2023-04-15T07:51:09;8.10;99.90
10980;DHT22;5543;51.734;8.744;2023-04-15T07:53:38;8.20;99.90
10980;DHT22;5543;51.734;8.744;2023-04-15T07:56:06;8.20;99.90
10980;DHT22;5543;51.734;8.744;2023-04-15T07:58:35;8.20;99.90
10980;DHT22;5543;51.734;8.744;2023-04-15T08:01:03;8.30;99.90
10980;DHT22;5543;51.734;8.744;2023-04-15T08:03:33;8.30;99.90
10980;DHT22;5543;51.734;8.744;2023-04-15T08:06:02;8.30;99.90
10980;DHT22;5543;51.734;8.744;2023-04-15T08:08:30;8.30;99.90
10980;DHT22;5543;51.734;8.744;2023-04-15T08:10:58;8.30;99.90
10980;DHT22;5543;51.734;8.744;2023-04-15T08:13:26;8.40;99.90
10980;DHT22;5543;51.734;8.744;2023-04-15T08:16:13;8.30;99.90
10980;DHT22;5543;51.734;8.744;2023-04-15T08:18:43;8.40;99.90
10980;DHT22;5543;51.734;8.744;2023-04-15T08:21:11;8.40;99.90
10980;DHT22;5543;51.734;8.744;2023-04-15T08:23:40;8.40;99.90
10980;DHT22;5543;51.734;8.744;2023-04-15T08:26:13;8.40;99.90
10980;DHT22;5543;51.734;8.744;2023-04-15T08:28:44;8.50;99.90
10980;DHT22;5543;51.734;8.744;2023-04-15T08:31:13;8.40;99.90
10980;DHT22;5543;51.734;8.744;2023-04-15T08:33:43;8.30;99.90
10980;DHT22;5543;51.734;8.744;2023-04-15T08:36:11;8.30;99.90
10980;DHT22;5543;51.734;8.744;2023-04-15T08:38:40;8.40;99.90
10980;DHT22;5543;51.734;8.744;2023-04-15T08:41:15;8.40;99.90
10980;DHT22;5543;51.734;8.744;2023-04-15T08:43:51;8.50;99.90
10980;DHT22;5543;51.734;8.744;2023-04-15T08:46:20;8.40;99.90
10980;DHT22;5543;51.734;8.744;2023-04-15T08:48:50;8.60;99.90
10980;DHT22;5543;51.734;8.744;2023-04-15T08:51:19;8.60;99.90
10980;DHT22;5543;51.734;8.744;2023-04-15T08:53:50;8.60;99.90
10980;DHT22;5543;51.734;8.744;2023-04-15T08:56:25;8.70;99.90
10980;DHT22;5543;51.734;8.744;2023-04-15T08:58:57;8.70;99.90
10980;DHT22;5543;51.734;8.744;2023-04-15T09:01:26;8.60;99.90
10980;DHT22;5543;51.734;8.744;2023-04-15T09:03:55;8.60;99.90
10980;DHT22;5543;51.734;8.744;2023-04-15T09:06:24;8.60;99.90
10980;DHT22;5543;51.734;8.744;2023-04-15T09:08:59;8.40;99.90
10980;DHT22;5543;51.734;8.744;2023-04-15T09:11:29;8.40;99.90
10980;DHT22;5543;51.734;8.744;2023-04-15T09:13:58;8.40;99.90
10980;DHT22;5543;51.734;8.744;2023-04-15T09:16:26;8.50;99.90
10980;DHT22;5543;51.734;8.744;2023-04-15T09:18:56;8.50;99.90
10980;DHT22;5543;51.734;8.744;2023-04-15T09:21:24;8.50;99.90
10980;DHT22;5543;51.734;8.744;2023-04-15T09:23:54;8.50;99.90
10980;DHT22;5543;51.734;8.744;2023-04-15T09:26:33;8.70;99.90
10980;DHT22;5543;51.734;8.744;2023-04-15T09:29:03;8.40;99.90
10980;DHT22;5543;51.734;8.744;2023-04-15T09:31:32;8.40;99.90
10980;DHT22;5543;51.734;8.744;2023-04-15T09:34:04;8.40;99.90
10980;DHT22;5543;51.734;8.744;2023-04-15T09:36:51;8.40;99.90
10980;DHT22;5543;51.734;8.744;2023-04-15T09:39:20;8.50;99.90
10980;DHT22;5543;51.734;8.744;2023-04-15T09:42:04;8.40;99.90
10980;DHT22;5543;51.734;8.744;2023-04-15T09:44:33;8.40;99.90
10980;DHT22;5543;51.734;8.744;2023-04-15T09:47:01;8.30;99.90
10980;DHT22;5543;51.734;8.744;2023-04-15T09:49:31;8.30;99.90
10980;DHT22;5543;51.734;8.744;2023-04-15T09:52:00;8.30;99.90
10980;DHT22;5543;51.734;8.744;2023-04-15T09:54:33;8.30;99.90
10980;DHT22;5543;51.734;8.744;2023-04-15T09:57:06;8.30;99.90
10980;DHT22;5543;51.734;8.744;2023-04-15T09:59:36;8.30;99.90
10980;DHT22;5543;51.734;8.744;2023-04-15T10:02:04;8.30;99.90
10980;DHT22;5543;51.734;8.744;2023-04-15T10:04:38;8.40;99.90
10980;DHT22;5543;51.734;8.744;2023-04-15T10:07:08;8.40;99.90
10980;DHT22;5543;51.734;8.744;2023-04-15T10:09:37;8.40;99.90
10980;DHT22;5543;51.734;8.744;2023-04-15T10:12:05;8.50;99.90
10980;DHT22;5543;51.734;8.744;2023-04-15T10:14:35;8.30;99.90
10980;DHT22;5543;51.734;8.744;2023-04-15T10:17:05;8.30;99.90
10980;DHT22;5543;51.734;8.744;2023-04-15T10:19:36;8.30;99.90
10980;DHT22;5543;51.734;8.744;2023-04-15T10:22:05;8.30;99.90
10980;DHT22;5543;51.734;8.744;2023-04-15T10:24:33;8.30;99.90
10980;DHT22;5543;51.734;8.744;2023-04-15T10:27:03;8.30;99.90
10980;DHT22;5543;51.734;8.744;2023-04-15T10:29:33;8.30;99.90
10980;DHT22;5543;51.734;8.744;2023-04-15T10:32:02;8.40;99.90
10980;DHT22;5543;51.734;8.744;2023-04-15T10:34:30;8.20;99.90
10980;DHT22;5543;51.734;8.744;2023-04-15T10:37:03;8.20;99.90
10980;DHT22;5543;51.734;8.744;2023-04-15T10:39:40;8.20;99.90
10980;DHT22;5543;51.734;8.744;2023-04-15T10:42:10;8.20;99.90
10980;DHT22;5543;51.734;8.744;2023-04-15T10:44:38;8.20;99.90
10980;DHT22;5543;51.734;8.744;2023-04-15T10:47:13;8.20;99.90
10980;DHT22;5543;51.734;8.744;2023-04-15T10:49:48;8.20;99.90
10980;DHT22;5543;51.734;8.744;2023-04-15T10:52:23;8.20;99.90
10980;DHT22;5543;51.734;8.744;2023-04-15T10:55:01;8.30;99.90
10980;DHT22;5543;51.734;8.744;2023-04-15T10:57:34;8.30;99.90
10980;DHT22;5543;51.734;8.744;2023-04-15T11:00:10;8.30;99.90
10980;DHT22;5543;51.734;8.744;2023-04-15T11:02:44;8.40;99.90
10980;DHT22;5543;51.734;8.744;2023-04-15T11:05:14;8.40;99.90
10980;DHT22;5543;51.734;8.744;2023-04-15T11:07:53;8.40;99.90
10980;DHT22;5543;51.734;8.744;2023-04-15T11:10:52;8.40;99.90
10980;DHT22;5543;51.734;8.744;2023-04-15T11:13:26;8.40;99.90
10980;DHT22;5543;51.734;8.744;2023-04-15T11:15:59;8.40;99.90
10980;DHT22;5543;51.734;8.744;2023-04-15T11:18:30;8.40;99.90
10980;DHT22;5543;51.734;8.744;2023-04-15T11:21:01;8.40;99.90
10980;DHT22;5543;51.734;8.744;2023-04-15T11:23:35;8.50;99.90
10980;DHT22;5543;51.734;8.744;2023-04-15T11:26:05;8.50;99.90
10980;DHT22;5543;51.734;8.744;2023-04-15T11:28:36;8.50;99.90
10980;DHT22;5543;51.734;8.744;2023-04-15T11:31:07;8.50;99.90
10980;DHT22;5543;51.734;8.744;2023-04-15T11:33:37;8.50;99.90
10980;DHT22;5543;51.734;8.744;2023-04-15T11:36:06;8.60;99.90
10980;DHT22;5543;51.734;8.744;2023-04-15T11:38:36;8.60;99.90
10980;DHT22;5543;51.734;8.744;2023-04-15T11:41:04;8.60;99.90
10980;DHT22;5543;51.734;8.744;2023-04-15T11:43:33;8.60;99.90
10980;DHT22;5543;51.734;8.744;2023-04-15T11:46:02;8.60;99.90
10980;DHT22;5543;51.734;8.744;2023-04-15T11:48:32;8.60;99.90
10980;DHT22;5543;51.734;8.744;2023-04-15T11:51:01;8.60;99.90
10980;DHT22;5543;51.734;8.744;2023-04-15T11:53:38;8.60;99.90
10980;DHT22;5543;51.734;8.744;2023-04-15T11:56:08;8.60;99.90
10980;DHT22;5543;51.734;8.744;2023-04-15T11:58:37;8.60;99.90
10980;DHT22;5543;51.734;8.744;2023-04-15T12:01:06;8.60;99.90
10980;DHT22;5543;51.734;8.744;2023-04-15T12:03:38;8.70;99.90
10980;DHT22;5543;51.734;8.744;2023-04-15T12:06:15;8.60;99.90
10980;DHT22;5543;51.734;8.744;2023-04-15T12:09:06;8.60;99.90
10980;DHT22;5543;51.734;8.744;2023-04-15T12:11:37;8.60;99.90
10980;DHT22;5543;51.734;8.744;2023-04-15T12:14:11;8.60;99.90
10980;DHT22;5543;51.734;8.744;2023-04-15T12:16:41;8.60;99.90
10980;DHT22;5543;51.734;8.744;2023-04-15T12:19:19;8.60;99.90
10980;DHT22;5543;51.734;8.744;2023-04-15T12:21:49;8.70;99.90
10980;DHT22;5543;51.734;8.744;2023-04-15T12:24:21;8.60;99.90
10980;DHT22;5543;51.734;8.744;2023-04-15T12:26:50;8.60;99.90
10980;DHT22;5543;51.734;8.744;2023-04-15T12:29:23;8.70;99.90
10980;DHT22;5543;51.734;8.744;2023-04-15T12:31:53;8.70;99.90
10980;DHT22;5543;51.734;8.744;2023-04-15T12:34:28;8.70;99.90
10980;DHT22;5543;51.734;8.744;2023-04-15T12:36:58;8.70;99.90
10980;DHT22;5543;51.734;8.744;2023-04-15T12:39:29;8.70;99.90
10980;DHT22;5543;51.734;8.744;2023-04-15T12:41:58;8.80;99.90
10980;DHT22;5543;51.734;8.744;2023-04-15T12:44:27;8.70;99.90
10980;DHT22;5543;51.734;8.744;2023-04-15T12:46:56;8.70;99.90
10980;DHT22;5543;51.734;8.744;2023-04-15T12:49:24;8.70;99.90
10980;DHT22;5543;51.734;8.744;2023-04-15T12:51:56;8.80;99.90
10980;DHT22;5543;51.734;8.744;2023-04-15T12:54:27;8.80;99.90
10980;DHT22;5543;51.734;8.744;2023-04-15T12:56:56;8.80;99.90
10980;DHT22;5543;51.734;8.744;2023-04-15T12:59:24;8.80;99.90
10980;DHT22;5543;51.734;8.744;2023-04-15T13:01:53;8.80;99.90
10980;DHT22;5543;51.734;8.744;2023-04-15T13:04:21;8.80;99.90
10980;DHT22;5543;51.734;8.744;2023-04-15T13:06:50;8.80;99.90
10980;DHT22;5543;51.734;8.744;2023-04-15T13:09:18;8.80;99.90
10980;DHT22;5543;51.734;8.744;2023-04-15T13:11:48;8.90;99.90
10980;DHT22;5543;51.734;8.744;2023-04-15T13:14:16;8.90;99.90
10980;DHT22;5543;51.734;8.744;2023-04-15T13:16:45;8.90;99.90
10980;DHT22;5543;51.734;8.744;2023-04-15T13:19:13;8.90;99.90
10980;DHT22;5543;51.734;8.744;2023-04-15T13:21:41;8.90;99.90
10980;DHT22;5543;51.734;8.744;2023-04-15T13:24:09;8.90;99.90
10980;DHT22;5543;51.734;8.744;2023-04-15T13:26:37;8.90;99.90
10980;DHT22;5543;51.734;8.744;2023-04-15T13:29:07;8.90;99.90
10980;DHT22;5543;51.734;8.744;2023-04-15T13:31:35;8.90;99.90
10980;DHT22;5543;51.734;8.744;2023-04-15T13:34:03;8.90;99.90
10980;DHT22;5543;51.734;8.744;2023-04-15T13:36:32;8.90;99.90
10980;DHT22;5543;51.734;8.744;2023-04-15T13:39:00;8.90;99.90
10980;DHT22;5543;51.734;8.744;2023-04-15T13:41:29;8.90;99.90
10980;DHT22;5543;51.734;8.744;2023-04-15T13:43:58;8.90;99.90
10980;DHT22;5543;51.734;8.744;2023-04-15T13:46:27;8.90;99.90
10980;DHT22;5543;51.734;8.744;2023-04-15T13:48:57;9.00;99.90
10980;DHT22;5543;51.734;8.744;2023-04-15T13:51:28;8.90;99.90
10980;DHT22;5543;51.734;8.744;2023-04-15T13:53:56;8.90;99.90
10980;DHT22;5543;51.734;8.744;2023-04-15T13:56:24;9.00;99.90
10980;DHT22;5543;51.734;8.744;2023-04-15T13:58:53;9.00;99.90
10980;DHT22;5543;51.734;8.744;2023-04-15T14:01:24;9.00;99.90
10980;DHT22;5543;51.734;8.744;2023-04-15T14:03:54;9.00;99.90
10980;DHT22;5543;51.734;8.744;2023-04-15T14:06:22;9.00;99.90
10980;DHT22;5543;51.734;8.744;2023-04-15T14:08:52;9.00;99.90
10980;DHT22;5543;51.734;8.744;2023-04-15T14:11:20;8.90;99.90
10980;DHT22;5543;51.734;8.744;2023-04-15T14:13:48;8.90;99.90
10980;DHT22;5543;51.734;8.744;2023-04-15T14:16:16;8.90;99.90
10980;DHT22;5543;51.734;8.744;2023-04-15T14:18:44;8.90;99.90
10980;DHT22;5543;51.734;8.744;2023-04-15T14:21:14;8.90;99.90
10980;DHT22;5543;51.734;8.744;2023-04-15T14:23:42;8.90;99.90
10980;DHT22;5543;51.734;8.744;2023-04-15T14:26:11;8.90;99.90
10980;DHT22;5543;51.734;8.744;2023-04-15T14:28:39;8.90;99.90
10980;DHT22;5543;51.734;8.744;2023-04-15T14:31:08;8.90;99.90
10980;DHT22;5543;51.734;8.744;2023-04-15T14:33:37;8.90;99.90
10980;DHT22;5543;51.734;8.744;2023-04-15T14:36:05;8.90;99.90
10980;DHT22;5543;51.734;8.744;2023-04-15T14:38:35;8.90;99.90
10980;DHT22;5543;51.734;8.744;2023-04-15T14:41:06;8.90;99.90
10980;DHT22;5543;51.734;8.744;2023-04-15T14:43:34;8.90;99.90
10980;DHT22;5543;51.734;8.744;2023-04-15T14:46:03;8.90;99.90
10980;DHT22;5543;51.734;8.744;2023-04-15T14:48:31;8.90;99.90
10980;DHT22;5543;51.734;8.744;2023-04-15T14:50:59;8.90;99.90
10980;DHT22;5543;51.734;8.744;2023-04-15T14:53:27;9.00;99.90
10980;DHT22;5543;51.734;8.744;2023-04-15T14:55:57;9.00;99.90
10980;DHT22;5543;51.734;8.744;2023-04-15T14:58:25;9.00;99.90
10980;DHT22;5543;51.734;8.744;2023-04-15T15:00:53;9.00;99.90
10980;DHT22;5543;51.734;8.744;2023-04-15T15:03:22;9.00;99.90
10980;DHT22;5543;51.734;8.744;2023-04-15T15:05:50;9.00;99.90
10980;DHT22;5543;51.734;8.744;2023-04-15T15:08:19;9.00;99.90
10980;DHT22;5543;51.734;8.744;2023-04-15T15:10:48;9.00;99.90
10980;DHT22;5543;51.734;8.744;2023-04-15T15:13:18;9.00;99.90
10980;DHT22;5543;51.734;8.744;2023-04-15T15:15:46;9.00;99.90
10980;DHT22;5543;51.734;8.744;2023-04-15T15:18:16;9.00;99.90
10980;DHT22;5543;51.734;8.744;2023-04-15T15:20:45;9.00;99.90
10980;DHT22;5543;51.734;8.744;2023-04-15T15:23:14;9.00;99.90
10980;DHT22;5543;51.734;8.744;2023-04-15T15:25:42;9.00;99.90
10980;DHT22;5543;51.734;8.744;2023-04-15T15:28:11;9.00;99.90
10980;DHT22;5543;51.734;8.744;2023-04-15T15:30:41;9.00;99.90
10980;DHT22;5543;51.734;8.744;2023-04-15T15:33:09;9.00;99.90
10980;DHT22;5543;51.734;8.744;2023-04-15T15:35:38;9.00;99.90
10980;DHT22;5543;51.734;8.744;2023-04-15T15:38:07;9.00;99.90
10980;DHT22;5543;51.734;8.744;2023-04-15T15:40:35;9.00;99.90
10980;DHT22;5543;51.734;8.744;2023-04-15T15:43:03;9.00;99.90
10980;DHT22;5543;51.734;8.744;2023-04-15T15:45:32;9.00;99.90
10980;DHT22;5543;51.734;8.744;2023-04-15T15:48:01;9.00;99.90
10980;DHT22;5543;51.734;8.744;2023-04-15T15:50:31;9.00;99.90
10980;DHT22;5543;51.734;8.744;2023-04-15T15:52:59;9.00;99.90
10980;DHT22;5543;51.734;8.744;2023-04-15T15:55:27;9.00;99.90
10980;DHT22;5543;51.734;8.744;2023-04-15T15:57:56;9.00;99.90
10980;DHT22;5543;51.734;8.744;2023-04-15T16:00:25;9.00;99.90
10980;DHT22;5543;51.734;8.744;2023-04-15T16:02:54;9.00;99.90
10980;DHT22;5543;51.734;8.744;2023-04-15T16:05:28;9.10;99.90
10980;DHT22;5543;51.734;8.744;2023-04-15T16:07:56;9.10;99.90
10980;DHT22;5543;51.734;8.744;2023-04-15T16:10:24;9.10;99.90
10980;DHT22;5543;51.734;8.744;2023-04-15T16:12:53;9.10;99.90
10980;DHT22;5543;51.734;8.744;2023-04-15T16:15:21;9.10;99.90